Aldwick, United Kingdom
Current Conditions -  °F | °C
As of 5:20 AM on Friday 28 Nov 2014 (Local Time) from EGGD Reporting Station
Haze Haze  
Wind Chill: 42°   Ceiling: 600
Heat Index: 48°   Visibility: 3mi
Dew Point: 46°   Wind: 17mph
Humidity: 93%   Direction: 90°E
Pressure: 29.5"   Gusts: NA
Location:  51.34°N, 2.77°W
Report Text: EGGD 280520Z 09015KT 4800 BR BKN006 09/08 Q0999
Loading
Personal Weather Stations






























Interactive Weather Map New forecast layout! Learn more

10-Day Weather Forecast

Advertisements
Track Severe Weather on mobile